x

Middle Nomad (46004) Wave Buoy

11:00am - Sat 19th Aug 2017 All times are PDT. -7 hours from GMT.

  • Sig Wave height 6.9ft
  • Peak Period 9s
  • Wind
    20mph, 25mph gusts
  • Sea Temp 58°f
  • Air Temp 58°f
  • Sea Pressure 1019.3mb
  • Middle Nomad
  • Middle Nomad

More Historic Weather Station data

Upgrade to MSW Pro to gain access to the past 30 days of data for over 8000 Wavebouys and Weather Stations around the globe.

Join

Comparision Forecast

View Surf forecast
   
Sat 08/19 11:00am 7ft 9s 20 25 mph 1019.3mb 58f 58f
2:00am 7ft 10s 13 16 mph 1023.7mb 58f 57f
1:00am 7ft 10s 13 16 mph 1023.9mb 58f 57f
12:00am 8ft 9s 16 18 mph 1023.7mb 58f 57f
Fri 08/18 11:00pm 8.5ft 10s 18 20 mph 1023.7mb 58f 57f
10:00pm 8.5ft 10s 16
mph
1023.6mb 58f 58f
9:00pm 8ft 9s 18 20 mph 1023.4mb 58f 57f
5:00pm 9ft 10s 18 22 mph 1022.9mb 58f 58f
2:00am 8ft 7s 22 27 mph 1018.3mb 58f 57f
1:00am 7.5ft 7s 22 29 mph 1018mb 58f 57f
12:00am 7.5ft 7s 20 27 mph 1017.8mb 58f 57f
Thu 08/17 11:00pm 8ft 7s 20 25 mph 1017.7mb 58f 57f
9:00pm 7.5ft 8s 22 27 mph 1016.6mb 58f 57f
6:00pm 7.5ft 11s 20 25 mph 1015mb 58f 58f
5:00pm 7.5ft 7s 20 22 mph 1014.4mb 58f 59f
3:00pm 8ft 7s 22 27 mph 1013.4mb 58f 58f
3:00am 7ft 12s 18 20 mph 1015.4mb 58f 58f
1:00am 7.5ft 11s 16 18 mph 1017.4mb 58f 57f
Wed 08/16 10:00pm 8ft 10s 13 18 mph 1019.3mb 58f 57f
8:00pm 9ft 12s 9 11 mph 1019.3mb 58f 58f
7:00pm 10ft 11s 11 13 mph 1019.7mb 58f 58f
5:00pm 9ft 10s 11 16 mph 1020.2mb 58f 58f
3:00pm 9.5ft 12s 13 18 mph 1020.3mb 58f 58f
1:00pm 9.5ft 12s 18 20 mph 1019.3mb 58f 58f
10:00am 11ft 11s 18 22 mph 1017.5mb 58f 57f
8:00am 12ft 10s 20 25 mph 1016.5mb 58f 58f
3:00am 11ft 8s 20 25 mph 1014.5mb 58f 57f
2:00am 10ft 9s 20 25 mph 1014.4mb 58f 57f